Time;durP1;ratioP1;P1;durP2;ratioP2;P2;SDS_P1;SDS_P2;PMS_P1;PMS_P2;Temp;Humidity;BMP_temperature;BMP_pressure;BME280_temperature;BME280_humidity;BME280_pressure;Samples;Min_cycle;Max_cycle;Signal;HPM_P1;HPM_P2
2023/12/14 00:00:45;;;;;;;;;;;4.00;99.90;;;;;;5019834;28;19983;-92
2023/12/14 00:03:11;;;;;;;;;;;3.90;99.90;;;;;;5036765;28;19928;-93
2023/12/14 00:05:37;;;;;;;;;;;3.90;99.90;;;;;;5019980;28;20299;-94
2023/12/14 00:08:02;;;;;;;;;;;3.90;99.90;;;;;;5036975;28;19927;-92
2023/12/14 00:10:28;;;;;;;;;;;4.00;99.90;;;;;;5003995;28;19921;-92
2023/12/14 00:12:55;;;;;;;;;;;3.90;99.90;;;;;;4990548;28;19921;-93
2023/12/14 00:15:21;;;;;;;;;;;4.20;99.90;;;;;;5019384;28;19924;-92
2023/12/14 00:17:46;;;;;;;;;;;3.90;99.90;;;;;;5017868;28;19948;-93
2023/12/14 00:20:12;;;;;;;;;;;4.40;99.90;;;;;;4999896;28;20011;-93
2023/12/14 00:22:38;;;;;;;;;;;3.90;99.90;;;;;;5047524;28;19921;-95
2023/12/14 00:25:04;;;;;;;;;;;4.00;99.90;;;;;;5019712;28;19921;-95
2023/12/14 00:27:30;;;;;;;;;;;3.90;99.90;;;;;;5036442;28;20291;-95
2023/12/14 00:29:55;;;;;;;;;;;4.20;99.90;;;;;;5019092;28;19951;-95
2023/12/14 00:32:21;;;;;;;;;;;4.40;99.90;;;;;;5020871;28;19925;-95
2023/12/14 00:34:46;;;;;;;;;;;3.90;99.90;;;;;;4995829;28;19944;-96
2023/12/14 00:37:12;;;;;;;;;;;4.20;99.90;;;;;;5036231;28;20418;-96
2023/12/14 00:39:38;;;;;;;;;;;4.90;99.90;;;;;;5003178;28;20384;-95
2023/12/14 00:42:03;;;;;;;;;;;3.80;99.90;;;;;;5036114;28;19921;-95
2023/12/14 00:44:29;;;;;;;;;;;2.90;99.90;;;;;;5024516;28;19928;-95
2023/12/14 00:46:55;;;;;;;;;;;4.90;99.90;;;;;;5034664;28;19924;-95
2023/12/14 00:49:20;;;;;;;;;;;4.80;99.90;;;;;;5034087;28;20354;-95
2023/12/14 00:51:46;;;;;;;;;;;3.90;99.90;;;;;;5055404;28;20070;-95
2023/12/14 00:54:11;;;;;;;;;;;3.80;99.90;;;;;;5029123;28;19921;-95
2023/12/14 00:56:37;;;;;;;;;;;3.90;99.90;;;;;;5046904;28;19929;-95
2023/12/14 00:59:03;;;;;;;;;;;3.80;99.90;;;;;;5067093;28;19920;-96
2023/12/14 01:01:28;;;;;;;;;;;3.80;99.90;;;;;;5036103;28;19924;-96
2023/12/14 01:03:54;;;;;;;;;;;4.50;99.90;;;;;;5039431;28;20412;-95
2023/12/14 01:06:19;;;;;;;;;;;4.50;99.90;;;;;;5038553;28;19982;-95
2023/12/14 01:08:45;;;;;;;;;;;3.90;99.90;;;;;;5055426;28;19944;-96
2023/12/14 01:11:11;;;;;;;;;;;4.90;99.90;;;;;;5037808;28;19971;-95
2023/12/14 01:13:36;;;;;;;;;;;4.30;99.90;;;;;;5053774;28;20003;-95
2023/12/14 01:16:02;;;;;;;;;;;5.10;99.90;;;;;;5051271;28;19927;-95
2023/12/14 01:18:28;;;;;;;;;;;3.90;99.90;;;;;;5051816;28;20004;-95
2023/12/14 01:20:53;;;;;;;;;;;5.40;99.90;;;;;;5049351;28;20530;-94
2023/12/14 01:23:19;;;;;;;;;;;4.00;99.90;;;;;;5050649;28;19947;-96
2023/12/14 01:25:45;;;;;;;;;;;3.80;99.90;;;;;;5034307;28;19932;-95
2023/12/14 01:28:10;;;;;;;;;;;4.20;99.90;;;;;;5049293;28;20449;-95
2023/12/14 01:30:36;;;;;;;;;;;4.80;99.90;;;;;;5048942;28;19988;-95
2023/12/14 01:33:01;;;;;;;;;;;5.00;99.90;;;;;;5050848;28;19920;-96
2023/12/14 01:35:29;;;;;;;;;;;3.80;99.90;;;;;;5054905;28;19920;-95
2023/12/14 01:37:55;;;;;;;;;;;4.20;99.90;;;;;;5053750;28;19967;-95
2023/12/14 01:40:20;;;;;;;;;;;3.80;99.90;;;;;;5038611;28;20448;-96
2023/12/14 01:42:46;;;;;;;;;;;5.10;99.90;;;;;;5036810;28;20510;-96
2023/12/14 01:45:15;;;;;;;;;;;3.80;99.90;;;;;;5037339;28;19924;-96
2023/12/14 01:47:41;;;;;;;;;;;3.80;99.90;;;;;;5071826;28;19928;-95
2023/12/14 01:50:07;;;;;;;;;;;4.90;99.90;;;;;;5055144;28;19931;-95
2023/12/14 01:52:33;;;;;;;;;;;3.90;99.90;;;;;;5030715;28;19920;-96
2023/12/14 01:54:58;;;;;;;;;;;3.90;99.90;;;;;;5033370;28;19991;-96
2023/12/14 01:57:24;;;;;;;;;;;5.00;99.90;;;;;;5033479;28;19980;-95
2023/12/14 01:59:50;;;;;;;;;;;3.80;99.90;;;;;;5050576;28;19975;-95
2023/12/14 02:02:15;;;;;;;;;;;3.70;99.90;;;;;;5033399;28;20378;-96
2023/12/14 02:04:41;;;;;;;;;;;3.90;99.90;;;;;;5025099;28;20048;-95
2023/12/14 02:07:07;;;;;;;;;;;3.90;99.90;;;;;;5034585;28;19929;-96
2023/12/14 02:09:32;;;;;;;;;;;5.30;99.90;;;;;;5065192;28;21183;-95
2023/12/14 02:11:58;;;;;;;;;;;3.90;99.90;;;;;;5055123;28;19985;-96
2023/12/14 02:14:23;;;;;;;;;;;3.80;99.90;;;;;;5037546;28;19920;-95
2023/12/14 02:16:49;;;;;;;;;;;3.90;99.90;;;;;;5054612;28;19960;-95
2023/12/14 02:19:15;;;;;;;;;;;3.70;99.90;;;;;;5037818;28;19977;-95
2023/12/14 02:21:40;;;;;;;;;;;4.20;99.90;;;;;;5054144;28;19924;-96
2023/12/14 02:24:06;;;;;;;;;;;3.90;99.90;;;;;;5038058;28;19927;-95
2023/12/14 02:26:31;;;;;;;;;;;4.10;99.90;;;;;;5042983;28;19927;-95
2023/12/14 02:28:57;;;;;;;;;;;3.80;99.90;;;;;;5034840;28;19924;-95
2023/12/14 02:31:23;;;;;;;;;;;3.90;99.90;;;;;;5043293;28;19924;-95
2023/12/14 02:33:49;;;;;;;;;;;2.60;99.90;;;;;;5051984;28;19931;-95
2023/12/14 02:36:14;;;;;;;;;;;3.90;99.90;;;;;;5052299;28;19936;-96
2023/12/14 02:38:40;;;;;;;;;;;4.90;99.90;;;;;;5037138;28;19921;-95
2023/12/14 02:41:06;;;;;;;;;;;3.70;99.90;;;;;;5037422;28;19971;-95
2023/12/14 02:43:31;;;;;;;;;;;3.70;99.90;;;;;;5037207;28;20437;-96
2023/12/14 02:46:01;;;;;;;;;;;4.00;99.90;;;;;;5052849;28;19925;-95
2023/12/14 02:48:28;;;;;;;;;;;4.10;99.90;;;;;;5052804;28;19921;-95
2023/12/14 02:50:53;;;;;;;;;;;3.80;99.90;;;;;;5047397;28;19967;-96
2023/12/14 02:53:19;;;;;;;;;;;3.90;99.90;;;;;;5053909;28;19920;-95
2023/12/14 02:55:45;;;;;;;;;;;4.80;99.90;;;;;;5034947;28;20462;-95
2023/12/14 02:58:10;;;;;;;;;;;3.90;99.90;;;;;;5053073;28;19924;-95
2023/12/14 03:00:36;;;;;;;;;;;4.30;99.90;;;;;;5051295;28;19965;-95
2023/12/14 03:03:01;;;;;;;;;;;4.90;99.90;;;;;;5036883;28;20386;-96
2023/12/14 03:05:27;;;;;;;;;;;3.90;99.90;;;;;;5026928;28;19920;-95
2023/12/14 03:07:53;;;;;;;;;;;4.30;99.90;;;;;;5045265;28;20011;-95
2023/12/14 03:10:18;;;;;;;;;;;4.60;99.90;;;;;;5037144;28;19924;-95
2023/12/14 03:12:44;;;;;;;;;;;3.80;99.90;;;;;;5054073;28;19920;-96
2023/12/14 03:15:09;;;;;;;;;;;3.90;99.90;;;;;;5036414;28;19924;-95
2023/12/14 03:17:35;;;;;;;;;;;4.20;99.90;;;;;;5052487;28;19966;-95
2023/12/14 03:20:03;;;;;;;;;;;3.90;99.90;;;;;;5046668;28;20371;-95
2023/12/14 03:22:28;;;;;;;;;;;4.70;99.90;;;;;;5033564;28;19920;-96
2023/12/14 03:24:54;;;;;;;;;;;3.90;99.90;;;;;;5034147;28;19927;-95
2023/12/14 03:27:20;;;;;;;;;;;4.30;99.90;;;;;;5048315;28;19975;-95
2023/12/14 03:29:45;;;;;;;;;;;4.70;99.90;;;;;;5033142;28;19924;-96
2023/12/14 03:32:11;;;;;;;;;;;3.90;99.90;;;;;;5028893;28;19920;-96
2023/12/14 03:34:36;;;;;;;;;;;4.50;99.90;;;;;;5068878;28;19955;-95
2023/12/14 03:37:02;;;;;;;;;;;4.70;99.90;;;;;;5029149;28;20286;-95
2023/12/14 03:39:28;;;;;;;;;;;3.90;99.90;;;;;;5070048;28;19924;-96
2023/12/14 03:41:53;;;;;;;;;;;4.90;99.90;;;;;;5037432;28;19928;-95
2023/12/14 03:44:19;;;;;;;;;;;5.00;99.90;;;;;;5033693;28;20326;-95
2023/12/14 03:46:44;;;;;;;;;;;4.90;99.90;;;;;;5036259;28;19924;-95
2023/12/14 03:49:10;;;;;;;;;;;3.90;99.90;;;;;;5067468;28;19970;-95
2023/12/14 03:51:36;;;;;;;;;;;4.30;99.90;;;;;;5052760;28;19944;-95
2023/12/14 03:54:01;;;;;;;;;;;4.00;99.90;;;;;;5035309;28;19920;-96
2023/12/14 03:56:27;;;;;;;;;;;3.80;99.90;;;;;;5033306;28;20228;-95
2023/12/14 03:58:53;;;;;;;;;;;3.80;99.90;;;;;;5047616;28;19947;-95
2023/12/14 04:01:19;;;;;;;;;;;3.80;99.90;;;;;;5069633;28;19924;-95
2023/12/14 04:03:45;;;;;;;;;;;3.80;99.90;;;;;;5052154;28;19928;-95
2023/12/14 04:06:11;;;;;;;;;;;4.70;99.90;;;;;;5052902;28;19924;-96
2023/12/14 04:08:37;;;;;;;;;;;4.20;99.90;;;;;;5065983;28;19920;-96
2023/12/14 04:11:02;;;;;;;;;;;4.40;99.90;;;;;;5036382;28;19927;-95
2023/12/14 04:13:28;;;;;;;;;;;3.80;99.90;;;;;;5049485;28;19925;-95
2023/12/14 04:15:54;;;;;;;;;;;4.00;99.90;;;;;;5040894;28;20447;-95
2023/12/14 04:18:20;;;;;;;;;;;3.80;99.90;;;;;;5069467;28;19989;-96
2023/12/14 04:20:45;;;;;;;;;;;4.90;99.90;;;;;;5036582;28;19920;-95
2023/12/14 04:23:11;;;;;;;;;;;4.70;99.90;;;;;;5035617;28;19920;-95
2023/12/14 04:25:36;;;;;;;;;;;3.80;99.90;;;;;;5032887;28;20276;-95
2023/12/14 04:28:02;;;;;;;;;;;4.00;99.90;;;;;;5052852;28;20571;-95
2023/12/14 04:30:28;;;;;;;;;;;3.80;99.90;;;;;;5036507;28;19920;-96
2023/12/14 04:32:53;;;;;;;;;;;3.80;99.90;;;;;;5035950;28;19972;-95
2023/12/14 04:35:21;;;;;;;;;;;4.70;99.90;;;;;;5052962;28;20590;-95
2023/12/14 04:37:47;;;;;;;;;;;3.80;99.90;;;;;;5053605;28;19920;-95
2023/12/14 04:40:13;;;;;;;;;;;3.80;99.90;;;;;;5056308;28;19924;-94
2023/12/14 04:42:38;;;;;;;;;;;3.80;99.90;;;;;;5039621;28;19932;-96
2023/12/14 04:45:04;;;;;;;;;;;3.80;99.90;;;;;;5055234;28;19924;-95
2023/12/14 04:47:30;;;;;;;;;;;4.00;99.90;;;;;;5056577;28;20316;-95
2023/12/14 04:49:56;;;;;;;;;;;3.10;99.90;;;;;;5054337;28;19920;-95
2023/12/14 04:52:21;;;;;;;;;;;3.80;99.90;;;;;;5038569;28;19920;-96
2023/12/14 04:54:47;;;;;;;;;;;3.80;99.90;;;;;;5037983;28;19968;-95
2023/12/14 04:57:13;;;;;;;;;;;4.90;99.90;;;;;;5037169;28;20406;-96
2023/12/14 04:59:41;;;;;;;;;;;4.30;99.90;;;;;;5045621;28;19924;-95
2023/12/14 05:02:07;;;;;;;;;;;3.80;99.90;;;;;;5055799;28;19931;-94
2023/12/14 05:04:32;;;;;;;;;;;3.90;99.90;;;;;;5039098;28;20011;-96
2023/12/14 05:06:58;;;;;;;;;;;3.80;99.90;;;;;;5038117;28;19931;-95
2023/12/14 05:09:23;;;;;;;;;;;3.80;99.90;;;;;;5035782;28;20624;-95
2023/12/14 05:11:49;;;;;;;;;;;3.90;99.90;;;;;;5068986;28;20038;-95
2023/12/14 05:14:15;;;;;;;;;;;3.90;99.90;;;;;;5038631;28;20007;-96
2023/12/14 05:16:40;;;;;;;;;;;4.20;99.90;;;;;;5055100;28;19992;-96
2023/12/14 05:19:06;;;;;;;;;;;4.70;99.90;;;;;;5038225;28;20008;-95
2023/12/14 05:21:32;;;;;;;;;;;3.80;99.90;;;;;;5038239;28;19936;-95
2023/12/14 05:23:57;;;;;;;;;;;4.70;99.90;;;;;;5037314;28;19921;-95
2023/12/14 05:26:23;;;;;;;;;;;3.80;99.90;;;;;;5038014;28;20385;-92
2023/12/14 05:28:49;;;;;;;;;;;3.80;99.90;;;;;;5054591;28;20011;-92
2023/12/14 05:31:14;;;;;;;;;;;4.20;99.90;;;;;;5037106;28;19920;-92
2023/12/14 05:33:40;;;;;;;;;;;3.90;99.90;;;;;;5054058;28;19924;-92
2023/12/14 05:36:10;;;;;;;;;;;3.80;99.90;;;;;;5063717;28;20101;-92
2023/12/14 05:38:38;;;;;;;;;;;3.80;99.90;;;;;;5034365;28;19920;-92
2023/12/14 05:41:03;;;;;;;;;;;5.30;99.90;;;;;;5044186;28;19927;-92
2023/12/14 05:43:29;;;;;;;;;;;3.90;99.90;;;;;;5034669;28;19937;-94
2023/12/14 05:45:55;;;;;;;;;;;3.90;99.90;;;;;;5051984;28;19924;-95
2023/12/14 05:48:20;;;;;;;;;;;4.30;99.90;;;;;;5034683;28;20011;-95
2023/12/14 05:50:46;;;;;;;;;;;3.90;99.90;;;;;;5036056;28;19928;-95
2023/12/14 05:53:11;;;;;;;;;;;3.90;99.90;;;;;;5046983;28;20011;-89
2023/12/14 05:55:39;;;;;;;;;;;3.90;99.90;;;;;;5064594;28;19920;-88
2023/12/14 05:58:05;;;;;;;;;;;3.80;99.90;;;;;;5030400;28;20007;-89
2023/12/14 06:00:31;;;;;;;;;;;3.90;99.90;;;;;;5020541;28;19959;-89
2023/12/14 06:02:57;;;;;;;;;;;3.90;99.90;;;;;;5032353;28;19920;-90
2023/12/14 06:05:22;;;;;;;;;;;3.90;99.90;;;;;;5044240;28;19920;-86
2023/12/14 06:07:48;;;;;;;;;;;3.90;99.90;;;;;;5033165;28;19932;-88
2023/12/14 06:10:14;;;;;;;;;;;3.80;99.90;;;;;;5051627;28;19970;-88
2023/12/14 06:12:39;;;;;;;;;;;3.70;99.90;;;;;;5033342;28;20281;-88
2023/12/14 06:15:05;;;;;;;;;;;3.90;99.90;;;;;;5027013;28;19925;-88
2023/12/14 06:17:33;;;;;;;;;;;3.90;99.90;;;;;;5042543;28;19924;-88
2023/12/14 06:19:59;;;;;;;;;;;3.80;99.90;;;;;;5065975;28;19932;-95
2023/12/14 06:22:26;;;;;;;;;;;3.90;99.90;;;;;;5056101;28;19925;-94
2023/12/14 06:24:51;;;;;;;;;;;3.80;99.90;;;;;;5035684;28;19970;-95
2023/12/14 06:27:17;;;;;;;;;;;4.50;99.90;;;;;;5036985;28;20315;-96
2023/12/14 06:29:43;;;;;;;;;;;4.20;99.90;;;;;;5053595;28;19926;-96
2023/12/14 06:32:08;;;;;;;;;;;3.90;99.90;;;;;;5038892;28;19925;-96
2023/12/14 06:34:34;;;;;;;;;;;3.80;99.90;;;;;;5068970;28;20011;-96
2023/12/14 06:37:00;;;;;;;;;;;3.90;99.90;;;;;;5038886;28;19970;-96
2023/12/14 06:39:26;;;;;;;;;;;3.90;99.90;;;;;;5034625;28;19931;-96
2023/12/14 06:41:52;;;;;;;;;;;3.20;99.90;;;;;;5039061;28;19921;-95
2023/12/14 06:44:18;;;;;;;;;;;4.00;99.90;;;;;;5036096;28;19982;-95
2023/12/14 06:46:44;;;;;;;;;;;3.90;99.90;;;;;;5055615;28;20376;-95
2023/12/14 06:49:10;;;;;;;;;;;5.00;99.90;;;;;;5048613;28;19946;-95
2023/12/14 06:51:35;;;;;;;;;;;3.90;99.90;;;;;;5037356;28;19920;-94
2023/12/14 06:54:01;;;;;;;;;;;3.90;99.90;;;;;;5038537;28;19920;-96
2023/12/14 06:56:27;;;;;;;;;;;4.00;99.90;;;;;;5036114;28;19989;-96
2023/12/14 06:58:53;;;;;;;;;;;3.90;99.90;;;;;;5047451;28;20007;-96
2023/12/14 07:01:18;;;;;;;;;;;4.30;99.90;;;;;;5033210;28;20043;-96
2023/12/14 07:03:44;;;;;;;;;;;3.90;99.90;;;;;;5049000;28;19921;-96
2023/12/14 07:06:13;;;;;;;;;;;4.40;99.90;;;;;;5055467;28;19924;-95
2023/12/14 07:08:40;;;;;;;;;;;3.90;99.90;;;;;;5071791;28;19928;-96
2023/12/14 07:11:06;;;;;;;;;;;4.50;99.90;;;;;;5048569;28;19982;-95
2023/12/14 07:13:32;;;;;;;;;;;3.90;99.90;;;;;;5028716;28;19920;-95
2023/12/14 07:15:58;;;;;;;;;;;5.60;99.90;;;;;;5054399;28;20012;-96
2023/12/14 07:18:24;;;;;;;;;;;3.90;99.90;;;;;;5064100;28;19931;-95
2023/12/14 07:20:50;;;;;;;;;;;4.20;99.90;;;;;;5029724;28;20494;-94
2023/12/14 07:23:15;;;;;;;;;;;3.90;99.90;;;;;;5018392;28;19921;-87
2023/12/14 07:25:41;;;;;;;;;;;3.90;99.90;;;;;;5051669;28;19920;-89
2023/12/14 07:28:06;;;;;;;;;;;3.90;99.90;;;;;;5053309;28;20410;-90
2023/12/14 07:30:32;;;;;;;;;;;4.00;99.90;;;;;;5037062;28;19920;-88
2023/12/14 07:32:57;;;;;;;;;;;3.90;99.90;;;;;;5035050;28;19928;-88
2023/12/14 07:35:23;;;;;;;;;;;3.90;99.90;;;;;;5036538;28;19965;-89
2023/12/14 07:37:49;;;;;;;;;;;4.70;99.90;;;;;;5049214;28;20302;-88
2023/12/14 07:40:14;;;;;;;;;;;3.90;99.90;;;;;;5047712;28;20018;-88
2023/12/14 07:42:40;;;;;;;;;;;3.90;99.90;;;;;;5022330;28;19933;-89
2023/12/14 07:45:06;;;;;;;;;;;3.90;99.90;;;;;;5034924;28;19925;-88
2023/12/14 07:47:31;;;;;;;;;;;3.90;99.90;;;;;;5036315;28;19924;-89
2023/12/14 07:49:57;;;;;;;;;;;4.40;99.90;;;;;;5034425;28;19921;-88
2023/12/14 07:52:23;;;;;;;;;;;3.90;99.90;;;;;;5036711;28;20422;-89
2023/12/14 07:54:48;;;;;;;;;;;3.90;99.90;;;;;;5053006;28;19924;-89
2023/12/14 07:57:14;;;;;;;;;;;3.90;99.90;;;;;;5036969;28;19956;-89
2023/12/14 07:59:39;;;;;;;;;;;4.10;99.90;;;;;;5037208;28;19920;-89
2023/12/14 08:02:05;;;;;;;;;;;3.90;99.90;;;;;;5052472;28;19924;-87
2023/12/14 08:04:32;;;;;;;;;;;4.30;99.90;;;;;;5053611;28;19924;-88
2023/12/14 08:06:58;;;;;;;;;;;4.40;99.90;;;;;;5036827;28;20007;-88
2023/12/14 08:09:24;;;;;;;;;;;4.50;99.90;;;;;;5053685;28;19982;-88
2023/12/14 08:11:51;;;;;;;;;;;3.90;99.90;;;;;;5070641;28;19974;-87
2023/12/14 08:14:17;;;;;;;;;;;4.00;99.90;;;;;;5056078;28;19921;-88
2023/12/14 08:16:46;;;;;;;;;;;5.00;99.90;;;;;;5056046;28;19921;-88
2023/12/14 08:19:11;;;;;;;;;;;3.90;99.90;;;;;;5055816;28;19920;-87
2023/12/14 08:21:37;;;;;;;;;;;4.00;99.90;;;;;;5047497;28;20321;-88
2023/12/14 08:24:03;;;;;;;;;;;4.70;99.90;;;;;;5048769;28;19935;-89
2023/12/14 08:26:28;;;;;;;;;;;4.00;99.90;;;;;;5069257;28;19928;-89
2023/12/14 08:28:54;;;;;;;;;;;4.00;99.90;;;;;;5057028;28;19974;-88
2023/12/14 08:31:19;;;;;;;;;;;4.30;99.90;;;;;;5056559;28;19920;-88
2023/12/14 08:33:45;;;;;;;;;;;5.00;99.90;;;;;;5033439;28;19921;-88
2023/12/14 08:36:14;;;;;;;;;;;4.00;99.90;;;;;;5060994;28;19921;-89
2023/12/14 08:38:40;;;;;;;;;;;4.10;99.90;;;;;;5052127;28;20650;-87
2023/12/14 08:41:06;;;;;;;;;;;4.10;99.90;;;;;;5034704;28;19964;-87
2023/12/14 08:43:31;;;;;;;;;;;4.00;99.90;;;;;;5038547;28;20283;-88
2023/12/14 08:45:57;;;;;;;;;;;4.10;99.90;;;;;;5055428;28;20015;-88
2023/12/14 08:48:23;;;;;;;;;;;4.10;99.90;;;;;;5038103;28;20424;-87
2023/12/14 08:50:48;;;;;;;;;;;4.50;99.90;;;;;;5054426;28;19924;-88
2023/12/14 08:53:14;;;;;;;;;;;4.10;99.90;;;;;;5055958;28;19921;-88
2023/12/14 08:55:39;;;;;;;;;;;5.60;99.90;;;;;;5046867;28;19966;-90
2023/12/14 08:58:05;;;;;;;;;;;4.10;99.90;;;;;;5057770;28;19942;-90
2023/12/14 09:00:30;;;;;;;;;;;4.80;99.90;;;;;;5038328;28;20011;-89
2023/12/14 09:02:56;;;;;;;;;;;4.20;99.90;;;;;;5056170;28;20524;-88
2023/12/14 09:05:22;;;;;;;;;;;4.20;99.90;;;;;;5037508;28;19924;-88
2023/12/14 09:07:47;;;;;;;;;;;4.20;99.90;;;;;;5055912;28;19930;-88
2023/12/14 09:10:13;;;;;;;;;;;4.60;99.90;;;;;;5039329;28;19959;-87
2023/12/14 09:12:38;;;;;;;;;;;4.30;99.90;;;;;;5053908;28;19975;-88
2023/12/14 09:15:04;;;;;;;;;;;4.30;99.90;;;;;;5051118;28;20535;-87
2023/12/14 09:17:32;;;;;;;;;;;4.30;99.90;;;;;;5052955;28;19920;-88
2023/12/14 09:19:59;;;;;;;;;;;4.50;99.90;;;;;;5039405;28;19970;-88
2023/12/14 09:22:25;;;;;;;;;;;4.40;99.90;;;;;;5039384;28;20311;-88
2023/12/14 09:24:50;;;;;;;;;;;4.30;99.90;;;;;;5053666;28;19920;-88
2023/12/14 09:27:16;;;;;;;;;;;4.20;99.90;;;;;;5032204;28;19928;-87
2023/12/14 09:29:42;;;;;;;;;;;3.80;99.90;;;;;;5067587;28;19964;-87
2023/12/14 09:32:08;;;;;;;;;;;4.40;99.90;;;;;;5055779;28;19999;-87
2023/12/14 09:34:34;;;;;;;;;;;4.40;99.90;;;;;;5071591;28;19921;-88
2023/12/14 09:36:59;;;;;;;;;;;4.40;99.90;;;;;;5038624;28;19920;-88
2023/12/14 09:39:25;;;;;;;;;;;4.40;99.90;;;;;;5068824;28;20713;-88
2023/12/14 09:41:51;;;;;;;;;;;4.40;99.90;;;;;;5039035;28;19928;-88
2023/12/14 09:44:16;;;;;;;;;;;4.40;99.90;;;;;;5072194;28;19925;-88
2023/12/14 09:46:48;;;;;;;;;;;4.40;99.90;;;;;;5071004;28;20367;-88
2023/12/14 09:49:15;;;;;;;;;;;4.40;99.90;;;;;;5062228;28;20022;-88
2023/12/14 09:51:41;;;;;;;;;;;4.40;99.90;;;;;;5069668;28;19931;-88
2023/12/14 09:54:06;;;;;;;;;;;4.50;99.90;;;;;;5039150;28;19928;-88
2023/12/14 09:56:32;;;;;;;;;;;4.50;99.90;;;;;;5037481;28;20007;-88
2023/12/14 09:59:00;;;;;;;;;;;4.50;99.90;;;;;;5038292;28;19970;-88
2023/12/14 10:01:26;;;;;;;;;;;4.40;99.90;;;;;;5055202;28;19985;-88
2023/12/14 10:04:14;;;;;;;;;;;5.30;99.90;;;;;;5052945;28;19928;-87
2023/12/14 10:06:40;;;;;;;;;;;4.40;99.90;;;;;;5048786;28;20311;-87
2023/12/14 10:09:09;;;;;;;;;;;4.70;99.90;;;;;;5043425;28;20015;-88
2023/12/14 10:11:36;;;;;;;;;;;4.50;99.90;;;;;;5071300;28;19921;-88
2023/12/14 10:14:02;;;;;;;;;;;4.40;99.90;;;;;;5055066;28;19966;-88
2023/12/14 10:16:30;;;;;;;;;;;4.50;99.90;;;;;;5052780;28;19924;-88
2023/12/14 10:18:57;;;;;;;;;;;4.50;99.90;;;;;;5055280;28;20290;-88
2023/12/14 10:21:23;;;;;;;;;;;4.50;99.90;;;;;;5053118;28;20334;-88
2023/12/14 10:23:48;;;;;;;;;;;5.60;99.90;;;;;;5055724;28;20356;-88
2023/12/14 10:26:14;;;;;;;;;;;4.50;99.90;;;;;;5053405;28;19924;-88
2023/12/14 10:28:40;;;;;;;;;;;4.50;99.90;;;;;;5070644;28;19921;-89
2023/12/14 10:31:06;;;;;;;;;;;4.50;99.90;;;;;;5054367;28;20466;-88
2023/12/14 10:33:31;;;;;;;;;;;4.60;99.90;;;;;;5072063;28;19920;-90
2023/12/14 10:35:57;;;;;;;;;;;4.60;99.90;;;;;;5050166;28;20265;-90
2023/12/14 10:38:24;;;;;;;;;;;4.60;99.90;;;;;;5039367;28;19964;-90
2023/12/14 10:40:50;;;;;;;;;;;6.00;99.90;;;;;;5054480;28;19924;-90
2023/12/14 10:43:15;;;;;;;;;;;4.60;99.90;;;;;;5052875;28;19928;-91
2023/12/14 10:45:43;;;;;;;;;;;4.70;99.90;;;;;;5051919;28;19920;-90
2023/12/14 10:48:09;;;;;;;;;;;4.70;99.90;;;;;;5053758;28;20055;-89
2023/12/14 10:50:36;;;;;;;;;;;4.70;99.90;;;;;;5051983;28;19964;-89
2023/12/14 10:53:03;;;;;;;;;;;4.80;99.90;;;;;;5067631;28;19920;-90
2023/12/14 10:55:38;;;;;;;;;;;4.80;99.90;;;;;;5034441;28;20019;-90
2023/12/14 10:58:04;;;;;;;;;;;4.80;99.90;;;;;;5060472;28;20441;-90
2023/12/14 11:00:33;;;;;;;;;;;4.90;99.90;;;;;;5067179;28;20011;-91
2023/12/14 11:02:59;;;;;;;;;;;5.90;99.90;;;;;;5054428;28;19925;-90
2023/12/14 11:05:29;;;;;;;;;;;4.90;99.90;;;;;;5069423;28;19921;-90
2023/12/14 11:07:55;;;;;;;;;;;5.00;99.90;;;;;;5053299;28;19924;-90
2023/12/14 11:10:26;;;;;;;;;;;5.10;99.90;;;;;;5054110;28;19921;-90
2023/12/14 11:13:02;;;;;;;;;;;5.10;99.90;;;;;;5055043;28;19920;-90
2023/12/14 11:15:28;;;;;;;;;;;5.20;99.90;;;;;;5064471;28;20007;-90
2023/12/14 11:18:12;;;;;;;;;;;5.20;99.90;;;;;;5070792;28;19921;-88
2023/12/14 11:20:44;;;;;;;;;;;5.30;99.90;;;;;;5054260;28;20016;-90
2023/12/14 11:23:09;;;;;;;;;;;5.30;99.90;;;;;;5054115;28;19975;-89
2023/12/14 11:25:37;;;;;;;;;;;5.40;99.90;;;;;;5054131;28;19927;-89
2023/12/14 11:28:07;;;;;;;;;;;5.80;99.90;;;;;;5054288;28;19925;-90
2023/12/14 11:30:32;;;;;;;;;;;5.40;99.90;;;;;;5054784;28;19999;-90
2023/12/14 11:32:58;;;;;;;;;;;5.40;99.90;;;;;;5035565;28;19967;-89
2023/12/14 11:35:24;;;;;;;;;;;5.40;99.90;;;;;;5050595;28;19920;-90
2023/12/14 11:37:49;;;;;;;;;;;5.40;99.90;;;;;;5045463;28;20290;-90
2023/12/14 11:40:22;;;;;;;;;;;5.40;99.90;;;;;;5037392;28;19970;-89
2023/12/14 11:43:00;;;;;;;;;;;5.40;99.90;;;;;;5054911;28;20504;-90
2023/12/14 11:45:26;;;;;;;;;;;5.40;99.90;;;;;;5052864;28;19967;-90
2023/12/14 11:47:52;;;;;;;;;;;5.50;99.90;;;;;;5056871;28;19971;-90
2023/12/14 11:50:18;;;;;;;;;;;5.50;99.90;;;;;;5057214;28;20640;-89
2023/12/14 11:52:44;;;;;;;;;;;5.60;99.90;;;;;;5026558;28;19928;-90
2023/12/14 11:55:14;;;;;;;;;;;5.60;99.90;;;;;;5065606;28;19925;-89
2023/12/14 11:57:45;;;;;;;;;;;5.60;99.90;;;;;;5048505;28;19940;-90
2023/12/14 12:00:11;;;;;;;;;;;5.70;99.90;;;;;;5052360;28;19931;-90
2023/12/14 12:02:36;;;;;;;;;;;5.70;99.90;;;;;;5056649;28;20363;-90
2023/12/14 12:05:02;;;;;;;;;;;6.40;99.90;;;;;;5055906;28;19927;-89
2023/12/14 12:07:28;;;;;;;;;;;5.70;99.90;;;;;;5049688;28;19931;-90
2023/12/14 12:09:53;;;;;;;;;;;6.20;99.90;;;;;;5041637;28;19999;-90
2023/12/14 12:12:19;;;;;;;;;;;5.70;99.90;;;;;;5040235;28;20529;-88
2023/12/14 12:14:45;;;;;;;;;;;5.70;99.90;;;;;;5042564;28;19947;-90
2023/12/14 12:17:10;;;;;;;;;;;5.80;99.90;;;;;;5040844;28;19925;-90
2023/12/14 12:19:37;;;;;;;;;;;5.80;99.90;;;;;;5053629;28;19929;-89
2023/12/14 12:22:03;;;;;;;;;;;6.20;99.90;;;;;;5058854;28;20449;-90
2023/12/14 12:24:28;;;;;;;;;;;5.80;99.90;;;;;;5067917;28;20003;-89
2023/12/14 12:26:55;;;;;;;;;;;5.00;99.90;;;;;;5030353;28;20577;-89
2023/12/14 12:29:21;;;;;;;;;;;5.80;99.90;;;;;;5074507;28;19924;-89
2023/12/14 12:31:46;;;;;;;;;;;5.80;99.90;;;;;;5071130;28;19920;-90
2023/12/14 12:34:12;;;;;;;;;;;5.80;99.90;;;;;;5056975;28;19977;-90
2023/12/14 12:36:40;;;;;;;;;;;5.90;99.90;;;;;;5069529;28;19921;-89
2023/12/14 12:39:06;;;;;;;;;;;5.80;99.90;;;;;;5064745;28;19935;-90
2023/12/14 12:41:33;;;;;;;;;;;5.80;99.90;;;;;;5057782;28;19920;-90
2023/12/14 12:44:05;;;;;;;;;;;5.90;99.90;;;;;;5057302;28;19924;-89
2023/12/14 12:46:37;;;;;;;;;;;5.80;99.90;;;;;;5036598;28;19976;-88
2023/12/14 12:49:04;;;;;;;;;;;4.70;99.90;;;;;;5055015;28;19963;-89
2023/12/14 12:51:30;;;;;;;;;;;5.80;99.90;;;;;;5054412;28;19932;-88
2023/12/14 12:53:57;;;;;;;;;;;5.70;99.90;;;;;;5069369;28;20003;-88
2023/12/14 12:56:27;;;;;;;;;;;5.70;99.90;;;;;;5051439;28;19920;-88
2023/12/14 12:58:53;;;;;;;;;;;6.00;99.90;;;;;;5060905;28;20510;-88
2023/12/14 13:01:21;;;;;;;;;;;5.60;99.90;;;;;;5045011;28;19951;-88
2023/12/14 13:03:46;;;;;;;;;;;5.60;99.90;;;;;;5063100;28;19925;-88
2023/12/14 13:06:12;;;;;;;;;;;5.50;99.90;;;;;;5033259;28;19970;-87
2023/12/14 13:08:37;;;;;;;;;;;6.40;99.90;;;;;;5050427;28;19960;-88
2023/12/14 13:11:03;;;;;;;;;;;5.50;99.90;;;;;;5054435;28;19920;-88
2023/12/14 13:13:31;;;;;;;;;;;4.40;99.90;;;;;;5054201;28;20006;-88
2023/12/14 13:15:56;;;;;;;;;;;5.40;99.90;;;;;;5053535;28;19922;-87
2023/12/14 13:18:22;;;;;;;;;;;5.60;99.90;;;;;;5066418;28;19921;-88
2023/12/14 13:20:47;;;;;;;;;;;5.40;99.90;;;;;;5053728;28;20295;-88
2023/12/14 13:23:13;;;;;;;;;;;5.40;99.90;;;;;;5042315;28;19920;-89
2023/12/14 13:25:39;;;;;;;;;;;5.50;99.90;;;;;;5053190;28;19924;-89
2023/12/14 13:28:04;;;;;;;;;;;5.50;99.90;;;;;;5051973;28;19924;-89
2023/12/14 13:30:30;;;;;;;;;;;5.40;99.90;;;;;;5034601;28;19920;-89
2023/12/14 13:32:56;;;;;;;;;;;5.40;99.90;;;;;;5059644;28;19931;-88
2023/12/14 13:35:24;;;;;;;;;;;5.40;99.90;;;;;;5051815;28;19939;-88
2023/12/14 13:37:50;;;;;;;;;;;5.40;99.90;;;;;;5064865;28;19932;-88
2023/12/14 13:40:16;;;;;;;;;;;5.40;99.90;;;;;;5058243;28;19921;-88
2023/12/14 13:42:42;;;;;;;;;;;5.40;99.90;;;;;;5029694;28;19947;-88
2023/12/14 13:45:08;;;;;;;;;;;5.50;99.90;;;;;;5045446;28;20319;-88
2023/12/14 13:47:33;;;;;;;;;;;5.40;99.90;;;;;;5044712;28;20015;-87
2023/12/14 13:49:59;;;;;;;;;;;5.30;99.90;;;;;;5051795;28;20025;-88
2023/12/14 13:52:25;;;;;;;;;;;5.40;99.90;;;;;;5052077;28;19927;-87
2023/12/14 13:54:51;;;;;;;;;;;5.30;99.90;;;;;;5069850;28;19921;-88
2023/12/14 13:57:17;;;;;;;;;;;5.30;99.90;;;;;;5047233;28;19921;-88
2023/12/14 13:59:42;;;;;;;;;;;5.20;99.90;;;;;;5034668;28;19935;-88
2023/12/14 14:02:08;;;;;;;;;;;5.20;99.90;;;;;;5070680;28;20016;-88
2023/12/14 14:04:34;;;;;;;;;;;5.20;99.90;;;;;;5045296;28;19950;-88
2023/12/14 14:06:59;;;;;;;;;;;5.20;99.90;;;;;;5027459;28;19924;-88
2023/12/14 14:09:25;;;;;;;;;;;6.40;99.90;;;;;;5052508;28;19927;-88
2023/12/14 14:11:51;;;;;;;;;;;5.20;99.90;;;;;;5056431;28;19925;-87
2023/12/14 14:14:16;;;;;;;;;;;5.30;99.90;;;;;;5063206;28;20011;-91
2023/12/14 14:16:42;;;;;;;;;;;5.20;99.90;;;;;;5050296;28;20534;-92
2023/12/14 14:19:08;;;;;;;;;;;5.20;99.90;;;;;;5047107;28;19928;-93
2023/12/14 14:21:33;;;;;;;;;;;5.30;99.90;;;;;;5065632;28;19920;-92
2023/12/14 14:23:59;;;;;;;;;;;5.20;99.90;;;;;;5053254;28;19971;-92